Aviation Digital Data Service (ADDS)

Output produced by METARs form (0746 UTC 20 January 2017)
found at http://aviationweather.gov/adds/metars/
 
KBDL 200533Z 2006/2112 00000KT P6SM OVC030 
     FM210300 00000KT 1SM BR VCSH OVC015 
     FM210900 00000KT 2SM BR OVC010